sensor_id;sensor_type;location;lat;lon;timestamp;P1;durP1;ratioP1;P2;durP2;ratioP2
3311;SDS011;1668;49.648;8.570;2024-01-27T00:01:54;9.43;;;3.60;;
3311;SDS011;1668;49.648;8.570;2024-01-27T00:04:21;7.03;;;3.37;;
3311;SDS011;1668;49.648;8.570;2024-01-27T00:06:48;7.23;;;3.00;;
3311;SDS011;1668;49.648;8.570;2024-01-27T00:09:15;8.00;;;3.30;;
3311;SDS011;1668;49.648;8.570;2024-01-27T00:11:43;9.07;;;3.50;;
3311;SDS011;1668;49.648;8.570;2024-01-27T00:14:10;7.87;;;2.63;;
3311;SDS011;1668;49.648;8.570;2024-01-27T00:16:37;3.10;;;2.33;;
3311;SDS011;1668;49.648;8.570;2024-01-27T00:19:04;5.80;;;3.27;;
3311;SDS011;1668;49.648;8.570;2024-01-27T00:21:31;8.70;;;2.50;;
3311;SDS011;1668;49.648;8.570;2024-01-27T00:23:58;5.50;;;2.40;;
3311;SDS011;1668;49.648;8.570;2024-01-27T00:26:28;6.50;;;2.30;;
3311;SDS011;1668;49.648;8.570;2024-01-27T00:28:56;4.63;;;2.30;;
3311;SDS011;1668;49.648;8.570;2024-01-27T00:31:23;5.23;;;2.00;;
3311;SDS011;1668;49.648;8.570;2024-01-27T00:33:50;5.37;;;1.70;;
3311;SDS011;1668;49.648;8.570;2024-01-27T00:36:17;5.80;;;2.30;;
3311;SDS011;1668;49.648;8.570;2024-01-27T00:38:45;7.93;;;2.87;;
3311;SDS011;1668;49.648;8.570;2024-01-27T00:41:15;6.07;;;2.10;;
3311;SDS011;1668;49.648;8.570;2024-01-27T00:43:42;5.10;;;2.27;;
3311;SDS011;1668;49.648;8.570;2024-01-27T00:46:11;5.43;;;2.67;;
3311;SDS011;1668;49.648;8.570;2024-01-27T00:48:37;8.60;;;3.47;;
3311;SDS011;1668;49.648;8.570;2024-01-27T00:51:04;11.20;;;4.70;;
3311;SDS011;1668;49.648;8.570;2024-01-27T00:53:31;11.27;;;4.10;;
3311;SDS011;1668;49.648;8.570;2024-01-27T00:55:58;9.33;;;3.23;;
3311;SDS011;1668;49.648;8.570;2024-01-27T00:58:26;7.60;;;3.20;;
3311;SDS011;1668;49.648;8.570;2024-01-27T01:00:53;13.37;;;2.90;;
3311;SDS011;1668;49.648;8.570;2024-01-27T01:03:21;6.60;;;2.30;;
3311;SDS011;1668;49.648;8.570;2024-01-27T01:05:48;4.47;;;2.17;;
3311;SDS011;1668;49.648;8.570;2024-01-27T01:08:15;7.33;;;2.43;;
3311;SDS011;1668;49.648;8.570;2024-01-27T01:10:42;6.60;;;2.60;;
3311;SDS011;1668;49.648;8.570;2024-01-27T01:13:10;6.80;;;3.03;;
3311;SDS011;1668;49.648;8.570;2024-01-27T01:15:37;3.97;;;2.50;;
3311;SDS011;1668;49.648;8.570;2024-01-27T01:18:04;4.20;;;2.60;;
3311;SDS011;1668;49.648;8.570;2024-01-27T01:20:33;7.17;;;2.90;;
3311;SDS011;1668;49.648;8.570;2024-01-27T01:22:59;4.03;;;2.13;;
3311;SDS011;1668;49.648;8.570;2024-01-27T01:25:26;3.80;;;2.40;;
3311;SDS011;1668;49.648;8.570;2024-01-27T01:27:53;4.47;;;2.73;;
3311;SDS011;1668;49.648;8.570;2024-01-27T01:30:20;5.90;;;2.70;;
3311;SDS011;1668;49.648;8.570;2024-01-27T01:32:47;5.77;;;2.83;;
3311;SDS011;1668;49.648;8.570;2024-01-27T01:35:14;6.33;;;2.90;;
3311;SDS011;1668;49.648;8.570;2024-01-27T01:37:42;6.13;;;2.37;;
3311;SDS011;1668;49.648;8.570;2024-01-27T01:40:09;3.37;;;2.50;;
3311;SDS011;1668;49.648;8.570;2024-01-27T01:42:37;5.30;;;2.73;;
3311;SDS011;1668;49.648;8.570;2024-01-27T01:45:04;5.03;;;2.50;;
3311;SDS011;1668;49.648;8.570;2024-01-27T01:47:32;7.20;;;2.90;;
3311;SDS011;1668;49.648;8.570;2024-01-27T01:49:59;5.00;;;2.77;;
3311;SDS011;1668;49.648;8.570;2024-01-27T01:52:26;5.63;;;2.90;;
3311;SDS011;1668;49.648;8.570;2024-01-27T01:54:54;8.50;;;3.17;;
3311;SDS011;1668;49.648;8.570;2024-01-27T01:57:21;7.37;;;3.10;;
3311;SDS011;1668;49.648;8.570;2024-01-27T01:59:48;9.43;;;2.90;;
3311;SDS011;1668;49.648;8.570;2024-01-27T02:02:15;7.87;;;3.00;;
3311;SDS011;1668;49.648;8.570;2024-01-27T02:04:42;5.93;;;3.50;;
3311;SDS011;1668;49.648;8.570;2024-01-27T02:07:11;4.70;;;2.70;;
3311;SDS011;1668;49.648;8.570;2024-01-27T02:09:38;8.27;;;2.27;;
3311;SDS011;1668;49.648;8.570;2024-01-27T02:12:06;6.63;;;2.50;;
3311;SDS011;1668;49.648;8.570;2024-01-27T02:14:34;5.40;;;2.97;;
3311;SDS011;1668;49.648;8.570;2024-01-27T02:17:01;5.03;;;2.50;;
3311;SDS011;1668;49.648;8.570;2024-01-27T02:19:29;10.17;;;2.50;;
3311;SDS011;1668;49.648;8.570;2024-01-27T02:21:56;3.63;;;2.80;;
3311;SDS011;1668;49.648;8.570;2024-01-27T02:24:24;4.23;;;2.43;;
3311;SDS011;1668;49.648;8.570;2024-01-27T02:26:52;3.73;;;2.30;;
3311;SDS011;1668;49.648;8.570;2024-01-27T02:29:19;4.80;;;2.40;;
3311;SDS011;1668;49.648;8.570;2024-01-27T02:31:46;5.67;;;2.47;;
3311;SDS011;1668;49.648;8.570;2024-01-27T02:34:12;6.33;;;2.67;;
3311;SDS011;1668;49.648;8.570;2024-01-27T02:36:39;11.50;;;2.93;;
3311;SDS011;1668;49.648;8.570;2024-01-27T02:39:05;9.63;;;3.00;;
3311;SDS011;1668;49.648;8.570;2024-01-27T02:41:34;4.13;;;2.40;;
3311;SDS011;1668;49.648;8.570;2024-01-27T02:44:04;4.10;;;2.40;;
3311;SDS011;1668;49.648;8.570;2024-01-27T02:46:31;10.80;;;2.97;;
3311;SDS011;1668;49.648;8.570;2024-01-27T02:48:58;3.70;;;2.17;;
3311;SDS011;1668;49.648;8.570;2024-01-27T02:51:25;4.37;;;2.50;;
3311;SDS011;1668;49.648;8.570;2024-01-27T02:53:52;6.57;;;2.53;;
3311;SDS011;1668;49.648;8.570;2024-01-27T02:56:18;10.57;;;3.80;;
3311;SDS011;1668;49.648;8.570;2024-01-27T02:58:47;4.13;;;2.70;;
3311;SDS011;1668;49.648;8.570;2024-01-27T03:01:14;9.30;;;2.73;;
3311;SDS011;1668;49.648;8.570;2024-01-27T03:03:41;5.07;;;2.33;;
3311;SDS011;1668;49.648;8.570;2024-01-27T03:06:07;5.47;;;2.30;;
3311;SDS011;1668;49.648;8.570;2024-01-27T03:08:34;5.00;;;2.60;;
3311;SDS011;1668;49.648;8.570;2024-01-27T03:11:01;7.60;;;2.90;;
3311;SDS011;1668;49.648;8.570;2024-01-27T03:13:28;7.30;;;2.40;;
3311;SDS011;1668;49.648;8.570;2024-01-27T03:15:56;8.83;;;2.90;;
3311;SDS011;1668;49.648;8.570;2024-01-27T03:18:23;5.73;;;3.00;;
3311;SDS011;1668;49.648;8.570;2024-01-27T03:20:50;6.83;;;2.73;;
3311;SDS011;1668;49.648;8.570;2024-01-27T03:23:17;5.90;;;2.50;;
3311;SDS011;1668;49.648;8.570;2024-01-27T03:25:44;4.70;;;2.60;;
3311;SDS011;1668;49.648;8.570;2024-01-27T03:28:11;8.30;;;2.90;;
3311;SDS011;1668;49.648;8.570;2024-01-27T03:30:38;6.60;;;2.90;;
3311;SDS011;1668;49.648;8.570;2024-01-27T03:33:06;6.60;;;2.40;;
3311;SDS011;1668;49.648;8.570;2024-01-27T03:35:35;5.37;;;2.30;;
3311;SDS011;1668;49.648;8.570;2024-01-27T03:38:03;4.87;;;2.67;;
3311;SDS011;1668;49.648;8.570;2024-01-27T03:40:31;5.13;;;2.97;;
3311;SDS011;1668;49.648;8.570;2024-01-27T03:42:58;6.87;;;3.10;;
3311;SDS011;1668;49.648;8.570;2024-01-27T03:45:25;8.87;;;2.70;;
3311;SDS011;1668;49.648;8.570;2024-01-27T03:47:52;4.60;;;2.97;;
3311;SDS011;1668;49.648;8.570;2024-01-27T03:50:20;5.30;;;2.70;;
3311;SDS011;1668;49.648;8.570;2024-01-27T03:52:47;4.70;;;2.30;;
3311;SDS011;1668;49.648;8.570;2024-01-27T03:55:14;4.90;;;2.87;;
3311;SDS011;1668;49.648;8.570;2024-01-27T03:57:41;6.47;;;2.87;;
3311;SDS011;1668;49.648;8.570;2024-01-27T04:00:08;5.40;;;2.60;;
3311;SDS011;1668;49.648;8.570;2024-01-27T04:02:37;12.30;;;3.30;;
3311;SDS011;1668;49.648;8.570;2024-01-27T04:05:05;6.67;;;2.70;;
3311;SDS011;1668;49.648;8.570;2024-01-27T04:07:33;9.00;;;3.23;;
3311;SDS011;1668;49.648;8.570;2024-01-27T04:10:01;4.20;;;2.77;;
3311;SDS011;1668;49.648;8.570;2024-01-27T04:12:29;6.43;;;2.60;;
3311;SDS011;1668;49.648;8.570;2024-01-27T04:14:56;11.93;;;2.97;;
3311;SDS011;1668;49.648;8.570;2024-01-27T04:17:25;5.03;;;2.47;;
3311;SDS011;1668;49.648;8.570;2024-01-27T04:19:51;4.63;;;2.60;;
3311;SDS011;1668;49.648;8.570;2024-01-27T04:22:18;7.30;;;3.33;;
3311;SDS011;1668;49.648;8.570;2024-01-27T04:24:47;6.73;;;3.03;;
3311;SDS011;1668;49.648;8.570;2024-01-27T04:27:13;6.20;;;3.10;;
3311;SDS011;1668;49.648;8.570;2024-01-27T04:29:40;9.57;;;3.30;;
3311;SDS011;1668;49.648;8.570;2024-01-27T04:32:08;6.77;;;2.70;;
3311;SDS011;1668;49.648;8.570;2024-01-27T04:34:35;6.20;;;2.80;;
3311;SDS011;1668;49.648;8.570;2024-01-27T04:37:02;14.60;;;2.70;;
3311;SDS011;1668;49.648;8.570;2024-01-27T04:39:29;5.67;;;3.00;;
3311;SDS011;1668;49.648;8.570;2024-01-27T04:41:57;5.43;;;2.90;;
3311;SDS011;1668;49.648;8.570;2024-01-27T04:44:24;8.10;;;2.80;;
3311;SDS011;1668;49.648;8.570;2024-01-27T04:46:51;5.23;;;2.77;;
3311;SDS011;1668;49.648;8.570;2024-01-27T04:49:18;3.63;;;2.50;;
3311;SDS011;1668;49.648;8.570;2024-01-27T04:51:45;4.00;;;2.40;;
3311;SDS011;1668;49.648;8.570;2024-01-27T04:54:12;5.03;;;2.70;;
3311;SDS011;1668;49.648;8.570;2024-01-27T04:56:39;4.77;;;2.60;;
3311;SDS011;1668;49.648;8.570;2024-01-27T04:59:07;5.70;;;2.90;;
3311;SDS011;1668;49.648;8.570;2024-01-27T05:01:34;5.97;;;2.50;;
3311;SDS011;1668;49.648;8.570;2024-01-27T05:04:01;4.23;;;2.33;;
3311;SDS011;1668;49.648;8.570;2024-01-27T05:06:28;6.20;;;2.80;;
3311;SDS011;1668;49.648;8.570;2024-01-27T05:08:55;8.37;;;3.03;;
3311;SDS011;1668;49.648;8.570;2024-01-27T05:11:25;3.97;;;2.60;;
3311;SDS011;1668;49.648;8.570;2024-01-27T05:13:54;9.37;;;2.83;;
3311;SDS011;1668;49.648;8.570;2024-01-27T05:16:22;14.03;;;3.27;;
3311;SDS011;1668;49.648;8.570;2024-01-27T05:18:49;6.13;;;3.27;;
3311;SDS011;1668;49.648;8.570;2024-01-27T05:21:15;3.73;;;2.77;;
3311;SDS011;1668;49.648;8.570;2024-01-27T05:23:42;7.13;;;2.23;;
3311;SDS011;1668;49.648;8.570;2024-01-27T05:26:09;5.00;;;2.60;;
3311;SDS011;1668;49.648;8.570;2024-01-27T05:28:36;5.50;;;2.40;;
3311;SDS011;1668;49.648;8.570;2024-01-27T05:31:06;9.17;;;3.00;;
3311;SDS011;1668;49.648;8.570;2024-01-27T05:33:34;3.83;;;2.60;;
3311;SDS011;1668;49.648;8.570;2024-01-27T05:36:01;11.23;;;3.20;;
3311;SDS011;1668;49.648;8.570;2024-01-27T05:38:28;7.60;;;2.70;;
3311;SDS011;1668;49.648;8.570;2024-01-27T05:40:57;7.03;;;2.70;;
3311;SDS011;1668;49.648;8.570;2024-01-27T05:43:24;7.53;;;2.70;;
3311;SDS011;1668;49.648;8.570;2024-01-27T05:45:51;4.73;;;2.37;;
3311;SDS011;1668;49.648;8.570;2024-01-27T05:48:18;4.53;;;2.80;;
3311;SDS011;1668;49.648;8.570;2024-01-27T05:50:55;8.33;;;3.00;;
3311;SDS011;1668;49.648;8.570;2024-01-27T05:53:22;6.33;;;2.40;;
3311;SDS011;1668;49.648;8.570;2024-01-27T05:55:49;4.43;;;2.80;;
3311;SDS011;1668;49.648;8.570;2024-01-27T05:58:16;4.57;;;2.73;;
3311;SDS011;1668;49.648;8.570;2024-01-27T06:00:46;6.27;;;2.50;;
3311;SDS011;1668;49.648;8.570;2024-01-27T06:03:13;6.43;;;3.10;;
3311;SDS011;1668;49.648;8.570;2024-01-27T06:05:42;6.70;;;2.83;;
3311;SDS011;1668;49.648;8.570;2024-01-27T06:08:10;4.63;;;2.60;;
3311;SDS011;1668;49.648;8.570;2024-01-27T06:10:37;3.90;;;2.63;;
3311;SDS011;1668;49.648;8.570;2024-01-27T06:13:04;8.90;;;2.70;;
3311;SDS011;1668;49.648;8.570;2024-01-27T06:15:31;9.13;;;3.03;;
3311;SDS011;1668;49.648;8.570;2024-01-27T06:17:58;14.97;;;3.40;;
3311;SDS011;1668;49.648;8.570;2024-01-27T06:20:25;4.37;;;2.47;;
3311;SDS011;1668;49.648;8.570;2024-01-27T06:22:52;5.17;;;2.83;;
3311;SDS011;1668;49.648;8.570;2024-01-27T06:25:21;7.17;;;3.07;;
3311;SDS011;1668;49.648;8.570;2024-01-27T06:27:48;5.43;;;2.87;;
3311;SDS011;1668;49.648;8.570;2024-01-27T06:30:15;3.90;;;2.47;;
3311;SDS011;1668;49.648;8.570;2024-01-27T06:32:43;5.60;;;3.20;;
3311;SDS011;1668;49.648;8.570;2024-01-27T06:35:10;7.40;;;3.00;;
3311;SDS011;1668;49.648;8.570;2024-01-27T06:37:36;7.60;;;3.20;;
3311;SDS011;1668;49.648;8.570;2024-01-27T06:40:03;8.13;;;3.13;;
3311;SDS011;1668;49.648;8.570;2024-01-27T06:42:33;4.47;;;2.67;;
3311;SDS011;1668;49.648;8.570;2024-01-27T06:45:00;5.57;;;2.80;;
3311;SDS011;1668;49.648;8.570;2024-01-27T06:47:27;4.63;;;3.03;;
3311;SDS011;1668;49.648;8.570;2024-01-27T06:49:54;5.20;;;3.00;;
3311;SDS011;1668;49.648;8.570;2024-01-27T06:52:21;12.13;;;2.87;;
3311;SDS011;1668;49.648;8.570;2024-01-27T06:54:48;7.53;;;3.17;;
3311;SDS011;1668;49.648;8.570;2024-01-27T06:57:18;6.50;;;2.90;;
3311;SDS011;1668;49.648;8.570;2024-01-27T06:59:48;8.20;;;3.17;;
3311;SDS011;1668;49.648;8.570;2024-01-27T07:02:17;4.60;;;2.63;;
3311;SDS011;1668;49.648;8.570;2024-01-27T07:04:45;6.37;;;2.83;;
3311;SDS011;1668;49.648;8.570;2024-01-27T07:07:12;6.60;;;2.93;;
3311;SDS011;1668;49.648;8.570;2024-01-27T07:09:39;4.07;;;3.00;;
3311;SDS011;1668;49.648;8.570;2024-01-27T07:12:06;3.80;;;2.67;;
3311;SDS011;1668;49.648;8.570;2024-01-27T07:14:34;5.67;;;3.00;;
3311;SDS011;1668;49.648;8.570;2024-01-27T07:17:03;6.00;;;3.00;;
3311;SDS011;1668;49.648;8.570;2024-01-27T07:19:30;9.23;;;3.47;;
3311;SDS011;1668;49.648;8.570;2024-01-27T07:21:57;7.80;;;2.87;;
3311;SDS011;1668;49.648;8.570;2024-01-27T07:24:25;5.33;;;3.03;;
3311;SDS011;1668;49.648;8.570;2024-01-27T07:26:51;5.70;;;2.73;;
3311;SDS011;1668;49.648;8.570;2024-01-27T07:29:19;6.77;;;3.13;;
3311;SDS011;1668;49.648;8.570;2024-01-27T07:31:46;9.20;;;3.30;;
3311;SDS011;1668;49.648;8.570;2024-01-27T07:34:15;6.47;;;3.10;;
3311;SDS011;1668;49.648;8.570;2024-01-27T07:36:43;7.33;;;2.97;;
3311;SDS011;1668;49.648;8.570;2024-01-27T07:39:10;5.83;;;2.97;;
3311;SDS011;1668;49.648;8.570;2024-01-27T07:41:37;16.87;;;4.67;;
3311;SDS011;1668;49.648;8.570;2024-01-27T07:44:07;7.20;;;4.20;;
3311;SDS011;1668;49.648;8.570;2024-01-27T07:46:35;12.97;;;4.73;;
3311;SDS011;1668;49.648;8.570;2024-01-27T07:49:02;10.03;;;4.67;;
3311;SDS011;1668;49.648;8.570;2024-01-27T07:51:30;13.00;;;3.93;;
3311;SDS011;1668;49.648;8.570;2024-01-27T07:53:57;10.67;;;4.53;;
3311;SDS011;1668;49.648;8.570;2024-01-27T07:56:24;6.90;;;3.97;;
3311;SDS011;1668;49.648;8.570;2024-01-27T07:58:51;9.40;;;4.17;;
3311;SDS011;1668;49.648;8.570;2024-01-27T08:01:19;11.50;;;4.93;;
3311;SDS011;1668;49.648;8.570;2024-01-27T08:03:46;7.53;;;4.60;;
3311;SDS011;1668;49.648;8.570;2024-01-27T08:06:14;17.67;;;9.07;;
3311;SDS011;1668;49.648;8.570;2024-01-27T08:08:44;19.27;;;10.97;;
3311;SDS011;1668;49.648;8.570;2024-01-27T08:11:11;14.90;;;7.27;;
3311;SDS011;1668;49.648;8.570;2024-01-27T08:13:38;13.87;;;7.10;;
3311;SDS011;1668;49.648;8.570;2024-01-27T08:16:05;30.60;;;14.10;;
3311;SDS011;1668;49.648;8.570;2024-01-27T08:18:34;23.37;;;10.97;;
3311;SDS011;1668;49.648;8.570;2024-01-27T08:21:01;17.80;;;8.80;;
3311;SDS011;1668;49.648;8.570;2024-01-27T08:23:29;15.70;;;6.30;;
3311;SDS011;1668;49.648;8.570;2024-01-27T08:25:57;9.20;;;4.67;;
3311;SDS011;1668;49.648;8.570;2024-01-27T08:28:24;7.63;;;3.70;;
3311;SDS011;1668;49.648;8.570;2024-01-27T08:30:50;7.93;;;4.60;;
3311;SDS011;1668;49.648;8.570;2024-01-27T08:33:17;7.60;;;4.03;;
3311;SDS011;1668;49.648;8.570;2024-01-27T08:35:45;7.87;;;3.30;;
3311;SDS011;1668;49.648;8.570;2024-01-27T08:38:13;9.57;;;3.47;;
3311;SDS011;1668;49.648;8.570;2024-01-27T08:40:40;5.50;;;3.13;;
3311;SDS011;1668;49.648;8.570;2024-01-27T08:43:08;8.63;;;3.17;;
3311;SDS011;1668;49.648;8.570;2024-01-27T08:45:36;8.33;;;4.00;;
3311;SDS011;1668;49.648;8.570;2024-01-27T08:48:05;12.07;;;6.83;;
3311;SDS011;1668;49.648;8.570;2024-01-27T08:50:33;13.50;;;5.67;;
3311;SDS011;1668;49.648;8.570;2024-01-27T08:53:00;15.30;;;7.37;;
3311;SDS011;1668;49.648;8.570;2024-01-27T08:55:27;11.80;;;5.13;;
3311;SDS011;1668;49.648;8.570;2024-01-27T08:57:54;10.27;;;4.20;;
3311;SDS011;1668;49.648;8.570;2024-01-27T09:00:23;7.07;;;3.63;;
3311;SDS011;1668;49.648;8.570;2024-01-27T09:02:51;8.13;;;3.53;;
3311;SDS011;1668;49.648;8.570;2024-01-27T09:05:18;10.90;;;4.73;;
3311;SDS011;1668;49.648;8.570;2024-01-27T09:07:45;5.87;;;3.90;;
3311;SDS011;1668;49.648;8.570;2024-01-27T09:10:12;13.27;;;4.33;;
3311;SDS011;1668;49.648;8.570;2024-01-27T09:12:40;8.60;;;4.20;;
3311;SDS011;1668;49.648;8.570;2024-01-27T09:15:07;7.07;;;3.47;;
3311;SDS011;1668;49.648;8.570;2024-01-27T09:17:36;11.03;;;4.47;;
3311;SDS011;1668;49.648;8.570;2024-01-27T09:20:03;7.33;;;3.70;;
3311;SDS011;1668;49.648;8.570;2024-01-27T09:22:31;7.67;;;3.67;;
3311;SDS011;1668;49.648;8.570;2024-01-27T09:24:58;8.10;;;3.50;;
3311;SDS011;1668;49.648;8.570;2024-01-27T09:27:25;11.47;;;4.30;;
3311;SDS011;1668;49.648;8.570;2024-01-27T09:29:51;8.00;;;3.33;;
3311;SDS011;1668;49.648;8.570;2024-01-27T09:32:18;7.10;;;3.63;;
3311;SDS011;1668;49.648;8.570;2024-01-27T09:34:46;14.03;;;4.17;;
3311;SDS011;1668;49.648;8.570;2024-01-27T09:37:13;17.90;;;4.77;;
3311;SDS011;1668;49.648;8.570;2024-01-27T09:39:40;13.07;;;3.97;;
3311;SDS011;1668;49.648;8.570;2024-01-27T09:42:07;8.93;;;4.30;;
3311;SDS011;1668;49.648;8.570;2024-01-27T09:44:40;9.87;;;4.20;;
3311;SDS011;1668;49.648;8.570;2024-01-27T09:47:10;11.00;;;3.83;;
3311;SDS011;1668;49.648;8.570;2024-01-27T09:49:39;9.57;;;4.50;;
3311;SDS011;1668;49.648;8.570;2024-01-27T09:52:08;15.33;;;5.37;;
3311;SDS011;1668;49.648;8.570;2024-01-27T09:54:35;13.20;;;4.10;;
3311;SDS011;1668;49.648;8.570;2024-01-27T09:57:02;11.97;;;4.10;;
3311;SDS011;1668;49.648;8.570;2024-01-27T09:59:30;9.80;;;4.17;;
3311;SDS011;1668;49.648;8.570;2024-01-27T10:01:59;11.30;;;4.03;;
3311;SDS011;1668;49.648;8.570;2024-01-27T10:04:28;8.90;;;4.70;;
3311;SDS011;1668;49.648;8.570;2024-01-27T10:06:57;14.53;;;4.47;;
3311;SDS011;1668;49.648;8.570;2024-01-27T10:09:26;8.43;;;4.13;;
3311;SDS011;1668;49.648;8.570;2024-01-27T10:11:53;8.90;;;4.33;;
3311;SDS011;1668;49.648;8.570;2024-01-27T10:14:21;16.33;;;4.90;;
3311;SDS011;1668;49.648;8.570;2024-01-27T10:16:48;11.10;;;5.23;;
3311;SDS011;1668;49.648;8.570;2024-01-27T10:19:15;7.87;;;4.03;;
3311;SDS011;1668;49.648;8.570;2024-01-27T10:21:43;10.30;;;4.50;;
3311;SDS011;1668;49.648;8.570;2024-01-27T10:24:10;8.20;;;4.30;;
3311;SDS011;1668;49.648;8.570;2024-01-27T10:26:39;13.77;;;4.57;;
3311;SDS011;1668;49.648;8.570;2024-01-27T10:29:06;9.87;;;4.50;;
3311;SDS011;1668;49.648;8.570;2024-01-27T10:31:33;10.77;;;4.13;;
3311;SDS011;1668;49.648;8.570;2024-01-27T10:34:01;10.70;;;4.73;;
3311;SDS011;1668;49.648;8.570;2024-01-27T10:36:38;10.70;;;4.63;;
3311;SDS011;1668;49.648;8.570;2024-01-27T10:39:13;10.40;;;4.57;;
3311;SDS011;1668;49.648;8.570;2024-01-27T10:41:44;10.60;;;4.27;;
3311;SDS011;1668;49.648;8.570;2024-01-27T10:44:13;14.23;;;5.70;;
3311;SDS011;1668;49.648;8.570;2024-01-27T10:46:41;11.43;;;5.33;;
3311;SDS011;1668;49.648;8.570;2024-01-27T10:49:10;7.53;;;4.47;;
3311;SDS011;1668;49.648;8.570;2024-01-27T10:51:41;12.33;;;4.60;;
3311;SDS011;1668;49.648;8.570;2024-01-27T10:54:10;11.17;;;5.47;;
3311;SDS011;1668;49.648;8.570;2024-01-27T10:56:41;11.47;;;5.10;;
3311;SDS011;1668;49.648;8.570;2024-01-27T10:59:11;15.20;;;4.33;;
3311;SDS011;1668;49.648;8.570;2024-01-27T11:01:41;9.93;;;6.27;;
3311;SDS011;1668;49.648;8.570;2024-01-27T11:04:10;9.97;;;3.60;;
3311;SDS011;1668;49.648;8.570;2024-01-27T11:06:39;8.50;;;3.90;;
3311;SDS011;1668;49.648;8.570;2024-01-27T11:09:08;11.63;;;4.70;;
3311;SDS011;1668;49.648;8.570;2024-01-27T11:11:36;9.77;;;3.90;;
3311;SDS011;1668;49.648;8.570;2024-01-27T11:14:06;10.80;;;4.73;;
3311;SDS011;1668;49.648;8.570;2024-01-27T11:16:34;9.30;;;4.17;;
3311;SDS011;1668;49.648;8.570;2024-01-27T11:19:03;11.07;;;4.00;;
3311;SDS011;1668;49.648;8.570;2024-01-27T11:21:31;8.10;;;3.70;;
3311;SDS011;1668;49.648;8.570;2024-01-27T11:23:57;10.30;;;4.50;;
3311;SDS011;1668;49.648;8.570;2024-01-27T11:26:24;12.60;;;4.00;;
3311;SDS011;1668;49.648;8.570;2024-01-27T11:28:52;11.20;;;4.73;;
3311;SDS011;1668;49.648;8.570;2024-01-27T11:31:20;9.80;;;3.87;;
3311;SDS011;1668;49.648;8.570;2024-01-27T11:33:47;12.47;;;3.63;;
3311;SDS011;1668;49.648;8.570;2024-01-27T11:36:20;12.60;;;3.70;;
3311;SDS011;1668;49.648;8.570;2024-01-27T11:38:48;8.97;;;3.57;;
3311;SDS011;1668;49.648;8.570;2024-01-27T11:44:00;7.07;;;3.37;;
3311;SDS011;1668;49.648;8.570;2024-01-27T11:46:29;10.20;;;3.33;;
3311;SDS011;1668;49.648;8.570;2024-01-27T11:48:56;10.33;;;3.47;;
3311;SDS011;1668;49.648;8.570;2024-01-27T11:51:22;5.97;;;3.20;;
3311;SDS011;1668;49.648;8.570;2024-01-27T11:53:51;7.50;;;3.20;;
3311;SDS011;1668;49.648;8.570;2024-01-27T11:56:18;6.77;;;3.03;;
3311;SDS011;1668;49.648;8.570;2024-01-27T11:58:46;8.70;;;3.60;;
3311;SDS011;1668;49.648;8.570;2024-01-27T12:01:14;14.53;;;3.70;;
3311;SDS011;1668;49.648;8.570;2024-01-27T12:03:42;11.73;;;3.70;;
3311;SDS011;1668;49.648;8.570;2024-01-27T12:06:10;7.67;;;3.20;;
3311;SDS011;1668;49.648;8.570;2024-01-27T12:08:38;10.57;;;3.37;;
3311;SDS011;1668;49.648;8.570;2024-01-27T12:11:05;13.10;;;3.40;;
3311;SDS011;1668;49.648;8.570;2024-01-27T12:13:32;8.33;;;3.00;;
3311;SDS011;1668;49.648;8.570;2024-01-27T12:16:00;7.30;;;2.83;;
3311;SDS011;1668;49.648;8.570;2024-01-27T12:18:27;7.07;;;2.70;;
3311;SDS011;1668;49.648;8.570;2024-01-27T12:20:57;12.90;;;3.00;;
3311;SDS011;1668;49.648;8.570;2024-01-27T12:23:23;8.60;;;3.23;;
3311;SDS011;1668;49.648;8.570;2024-01-27T12:25:53;11.20;;;3.53;;
3311;SDS011;1668;49.648;8.570;2024-01-27T12:28:21;11.57;;;3.13;;
3311;SDS011;1668;49.648;8.570;2024-01-27T12:30:49;5.43;;;2.90;;
3311;SDS011;1668;49.648;8.570;2024-01-27T12:33:16;7.10;;;2.87;;
3311;SDS011;1668;49.648;8.570;2024-01-27T12:35:45;9.73;;;3.07;;
3311;SDS011;1668;49.648;8.570;2024-01-27T12:38:13;11.70;;;3.50;;
3311;SDS011;1668;49.648;8.570;2024-01-27T12:40:40;8.50;;;3.50;;
3311;SDS011;1668;49.648;8.570;2024-01-27T12:43:07;10.10;;;3.30;;
3311;SDS011;1668;49.648;8.570;2024-01-27T12:45:34;9.93;;;2.70;;
3311;SDS011;1668;49.648;8.570;2024-01-27T12:48:02;12.57;;;3.27;;
3311;SDS011;1668;49.648;8.570;2024-01-27T12:50:30;10.37;;;3.00;;
3311;SDS011;1668;49.648;8.570;2024-01-27T12:52:58;11.97;;;3.10;;
3311;SDS011;1668;49.648;8.570;2024-01-27T12:55:26;8.37;;;3.03;;
3311;SDS011;1668;49.648;8.570;2024-01-27T12:57:53;11.17;;;3.70;;
3311;SDS011;1668;49.648;8.570;2024-01-27T13:00:20;11.30;;;3.40;;
3311;SDS011;1668;49.648;8.570;2024-01-27T13:02:47;8.33;;;3.40;;
3311;SDS011;1668;49.648;8.570;2024-01-27T13:05:14;7.80;;;3.30;;
3311;SDS011;1668;49.648;8.570;2024-01-27T13:07:41;10.70;;;2.77;;
3311;SDS011;1668;49.648;8.570;2024-01-27T13:10:10;7.30;;;2.87;;
3311;SDS011;1668;49.648;8.570;2024-01-27T13:12:38;10.73;;;2.80;;
3311;SDS011;1668;49.648;8.570;2024-01-27T13:15:05;10.10;;;3.23;;
3311;SDS011;1668;49.648;8.570;2024-01-27T13:17:32;6.53;;;2.60;;
3311;SDS011;1668;49.648;8.570;2024-01-27T13:19:59;14.00;;;2.83;;
3311;SDS011;1668;49.648;8.570;2024-01-27T13:22:26;9.70;;;2.80;;
3311;SDS011;1668;49.648;8.570;2024-01-27T13:24:53;7.43;;;2.60;;
3311;SDS011;1668;49.648;8.570;2024-01-27T13:27:21;10.60;;;2.73;;
3311;SDS011;1668;49.648;8.570;2024-01-27T13:29:49;8.23;;;2.67;;
3311;SDS011;1668;49.648;8.570;2024-01-27T13:32:16;9.37;;;3.47;;
3311;SDS011;1668;49.648;8.570;2024-01-27T13:34:42;6.17;;;2.33;;
3311;SDS011;1668;49.648;8.570;2024-01-27T13:37:09;10.10;;;2.33;;
3311;SDS011;1668;49.648;8.570;2024-01-27T13:39:37;9.83;;;2.60;;
3311;SDS011;1668;49.648;8.570;2024-01-27T13:42:04;9.43;;;2.53;;
3311;SDS011;1668;49.648;8.570;2024-01-27T13:44:31;7.67;;;2.73;;
3311;SDS011;1668;49.648;8.570;2024-01-27T13:47:02;10.10;;;2.40;;
3311;SDS011;1668;49.648;8.570;2024-01-27T13:49:30;6.53;;;2.23;;
3311;SDS011;1668;49.648;8.570;2024-01-27T13:51:57;6.20;;;2.27;;
3311;SDS011;1668;49.648;8.570;2024-01-27T13:54:24;14.50;;;3.20;;
3311;SDS011;1668;49.648;8.570;2024-01-27T13:56:50;7.67;;;2.37;;
3311;SDS011;1668;49.648;8.570;2024-01-27T13:59:17;12.03;;;6.40;;
3311;SDS011;1668;49.648;8.570;2024-01-27T14:01:45;9.17;;;4.30;;
3311;SDS011;1668;49.648;8.570;2024-01-27T14:04:13;7.27;;;3.13;;
3311;SDS011;1668;49.648;8.570;2024-01-27T14:06:39;9.97;;;4.00;;
3311;SDS011;1668;49.648;8.570;2024-01-27T14:09:08;13.30;;;7.00;;
3311;SDS011;1668;49.648;8.570;2024-01-27T14:11:35;11.40;;;3.33;;
3311;SDS011;1668;49.648;8.570;2024-01-27T14:14:02;9.90;;;4.00;;
3311;SDS011;1668;49.648;8.570;2024-01-27T14:16:29;8.63;;;3.37;;
3311;SDS011;1668;49.648;8.570;2024-01-27T14:18:57;11.67;;;4.97;;
3311;SDS011;1668;49.648;8.570;2024-01-27T14:21:25;11.90;;;4.20;;
3311;SDS011;1668;49.648;8.570;2024-01-27T14:23:52;10.17;;;4.60;;
3311;SDS011;1668;49.648;8.570;2024-01-27T14:26:25;10.00;;;3.40;;
3311;SDS011;1668;49.648;8.570;2024-01-27T14:28:53;8.00;;;2.70;;
3311;SDS011;1668;49.648;8.570;2024-01-27T14:31:20;8.20;;;2.93;;
3311;SDS011;1668;49.648;8.570;2024-01-27T14:33:47;11.23;;;3.40;;
3311;SDS011;1668;49.648;8.570;2024-01-27T14:36:15;6.57;;;2.20;;
3311;SDS011;1668;49.648;8.570;2024-01-27T14:38:43;4.27;;;1.93;;
3311;SDS011;1668;49.648;8.570;2024-01-27T14:41:10;8.30;;;2.50;;
3311;SDS011;1668;49.648;8.570;2024-01-27T14:43:37;7.03;;;2.23;;
3311;SDS011;1668;49.648;8.570;2024-01-27T14:46:04;7.40;;;2.53;;
3311;SDS011;1668;49.648;8.570;2024-01-27T14:48:31;24.27;;;3.33;;
3311;SDS011;1668;49.648;8.570;2024-01-27T14:50:58;9.50;;;2.50;;
3311;SDS011;1668;49.648;8.570;2024-01-27T14:53:25;7.10;;;2.10;;
3311;SDS011;1668;49.648;8.570;2024-01-27T14:55:54;8.00;;;2.60;;
3311;SDS011;1668;49.648;8.570;2024-01-27T14:58:21;7.97;;;1.87;;
3311;SDS011;1668;49.648;8.570;2024-01-27T15:00:48;6.73;;;2.20;;
3311;SDS011;1668;49.648;8.570;2024-01-27T15:03:17;8.93;;;3.60;;
3311;SDS011;1668;49.648;8.570;2024-01-27T15:05:44;4.90;;;2.10;;
3311;SDS011;1668;49.648;8.570;2024-01-27T15:08:11;6.03;;;2.80;;
3311;SDS011;1668;49.648;8.570;2024-01-27T15:10:38;4.67;;;1.93;;
3311;SDS011;1668;49.648;8.570;2024-01-27T15:13:09;8.43;;;2.13;;
3311;SDS011;1668;49.648;8.570;2024-01-27T15:15:36;8.63;;;1.60;;
3311;SDS011;1668;49.648;8.570;2024-01-27T15:18:03;5.57;;;2.40;;